sensor_id;sensor_type;location;lat;lon;timestamp;temperature;humidity
3699;DHT22;1865;50.918;7.092;2022-10-13T00:01:43;13.50;60.20
3699;DHT22;1865;50.918;7.092;2022-10-13T00:04:09;13.40;60.60
3699;DHT22;1865;50.918;7.092;2022-10-13T00:06:34;13.40;61.00
3699;DHT22;1865;50.918;7.092;2022-10-13T00:09:00;13.40;61.00
3699;DHT22;1865;50.918;7.092;2022-10-13T00:11:27;13.50;60.70
3699;DHT22;1865;50.918;7.092;2022-10-13T00:13:58;13.50;61.00
3699;DHT22;1865;50.918;7.092;2022-10-13T00:16:25;13.60;60.80
3699;DHT22;1865;50.918;7.092;2022-10-13T00:18:51;13.50;60.50
3699;DHT22;1865;50.918;7.092;2022-10-13T00:21:19;13.60;60.80
3699;DHT22;1865;50.918;7.092;2022-10-13T00:23:46;13.60;60.70
3699;DHT22;1865;50.918;7.092;2022-10-13T00:26:13;13.70;60.60
3699;DHT22;1865;50.918;7.092;2022-10-13T00:28:39;13.70;60.60
3699;DHT22;1865;50.918;7.092;2022-10-13T00:31:34;13.80;60.70
3699;DHT22;1865;50.918;7.092;2022-10-13T00:34:00;13.80;59.90
3699;DHT22;1865;50.918;7.092;2022-10-13T00:36:27;13.80;60.70
3699;DHT22;1865;50.918;7.092;2022-10-13T00:38:53;13.80;60.30
3699;DHT22;1865;50.918;7.092;2022-10-13T00:41:19;13.70;60.30
3699;DHT22;1865;50.918;7.092;2022-10-13T00:43:49;13.70;60.50
3699;DHT22;1865;50.918;7.092;2022-10-13T00:46:15;13.70;61.00
3699;DHT22;1865;50.918;7.092;2022-10-13T00:48:42;13.70;60.80
3699;DHT22;1865;50.918;7.092;2022-10-13T00:51:10;13.70;60.90
3699;DHT22;1865;50.918;7.092;2022-10-13T00:53:37;13.70;60.90
3699;DHT22;1865;50.918;7.092;2022-10-13T00:56:06;13.80;60.70
3699;DHT22;1865;50.918;7.092;2022-10-13T00:58:33;13.80;60.70
3699;DHT22;1865;50.918;7.092;2022-10-13T01:00:59;13.80;60.60
3699;DHT22;1865;50.918;7.092;2022-10-13T01:03:25;13.80;60.10
3699;DHT22;1865;50.918;7.092;2022-10-13T01:05:54;13.80;60.60
3699;DHT22;1865;50.918;7.092;2022-10-13T01:08:21;13.80;60.60
3699;DHT22;1865;50.918;7.092;2022-10-13T01:11:14;13.80;60.90
3699;DHT22;1865;50.918;7.092;2022-10-13T01:14:17;13.80;60.30
3699;DHT22;1865;50.918;7.092;2022-10-13T01:24:46;13.90;60.30
3699;DHT22;1865;50.918;7.092;2022-10-13T01:27:43;13.90;60.50
3699;DHT22;1865;50.918;7.092;2022-10-13T01:30:17;14.00;59.70
3699;DHT22;1865;50.918;7.092;2022-10-13T01:33:15;14.00;60.10
3699;DHT22;1865;50.918;7.092;2022-10-13T01:36:25;14.00;59.70
3699;DHT22;1865;50.918;7.092;2022-10-13T01:39:06;14.00;59.80
3699;DHT22;1865;50.918;7.092;2022-10-13T01:41:37;14.00;59.70
3699;DHT22;1865;50.918;7.092;2022-10-13T01:44:16;14.00;59.60
3699;DHT22;1865;50.918;7.092;2022-10-13T01:46:46;13.90;60.10
3699;DHT22;1865;50.918;7.092;2022-10-13T01:49:15;13.90;60.30
3699;DHT22;1865;50.918;7.092;2022-10-13T01:51:42;13.90;60.40
3699;DHT22;1865;50.918;7.092;2022-10-13T01:54:08;13.90;60.30
3699;DHT22;1865;50.918;7.092;2022-10-13T01:56:33;13.90;60.30
3699;DHT22;1865;50.918;7.092;2022-10-13T01:59:02;14.00;60.30
3699;DHT22;1865;50.918;7.092;2022-10-13T02:09:56;14.10;59.90
3699;DHT22;1865;50.918;7.092;2022-10-13T02:12:41;14.00;59.70
3699;DHT22;1865;50.918;7.092;2022-10-13T02:15:12;14.00;59.50
3699;DHT22;1865;50.918;7.092;2022-10-13T02:17:40;14.00;59.90
3699;DHT22;1865;50.918;7.092;2022-10-13T02:20:07;14.00;59.70
3699;DHT22;1865;50.918;7.092;2022-10-13T02:22:37;14.00;59.80
3699;DHT22;1865;50.918;7.092;2022-10-13T02:25:05;13.90;59.60
3699;DHT22;1865;50.918;7.092;2022-10-13T02:27:31;13.90;59.90
3699;DHT22;1865;50.918;7.092;2022-10-13T02:29:57;13.90;60.10
3699;DHT22;1865;50.918;7.092;2022-10-13T02:32:22;13.90;60.00
3699;DHT22;1865;50.918;7.092;2022-10-13T02:34:49;13.90;59.50
3699;DHT22;1865;50.918;7.092;2022-10-13T02:37:15;13.90;60.10
3699;DHT22;1865;50.918;7.092;2022-10-13T02:39:40;13.90;59.90
3699;DHT22;1865;50.918;7.092;2022-10-13T02:42:06;14.00;59.70
3699;DHT22;1865;50.918;7.092;2022-10-13T02:44:32;14.00;59.70
3699;DHT22;1865;50.918;7.092;2022-10-13T02:46:57;14.00;59.60
3699;DHT22;1865;50.918;7.092;2022-10-13T02:49:23;13.90;60.50
3699;DHT22;1865;50.918;7.092;2022-10-13T02:51:48;13.90;60.30
3699;DHT22;1865;50.918;7.092;2022-10-13T02:54:14;14.00;60.00
3699;DHT22;1865;50.918;7.092;2022-10-13T02:56:39;14.00;60.00
3699;DHT22;1865;50.918;7.092;2022-10-13T02:59:05;14.00;60.00
3699;DHT22;1865;50.918;7.092;2022-10-13T03:01:31;14.00;60.30
3699;DHT22;1865;50.918;7.092;2022-10-13T03:03:57;14.10;60.10
3699;DHT22;1865;50.918;7.092;2022-10-13T03:06:22;14.10;60.80
3699;DHT22;1865;50.918;7.092;2022-10-13T03:08:48;14.20;59.90
3699;DHT22;1865;50.918;7.092;2022-10-13T03:11:13;14.20;59.90
3699;DHT22;1865;50.918;7.092;2022-10-13T03:13:39;14.30;59.70
3699;DHT22;1865;50.918;7.092;2022-10-13T03:16:05;14.30;59.80
3699;DHT22;1865;50.918;7.092;2022-10-13T03:18:31;14.30;59.40
3699;DHT22;1865;50.918;7.092;2022-10-13T03:20:58;14.30;59.40
3699;DHT22;1865;50.918;7.092;2022-10-13T03:23:24;14.30;59.50
3699;DHT22;1865;50.918;7.092;2022-10-13T03:25:50;14.20;59.50
3699;DHT22;1865;50.918;7.092;2022-10-13T03:28:16;14.20;59.60
3699;DHT22;1865;50.918;7.092;2022-10-13T03:30:41;14.20;59.60
3699;DHT22;1865;50.918;7.092;2022-10-13T03:33:07;14.20;59.60
3699;DHT22;1865;50.918;7.092;2022-10-13T03:35:32;14.20;59.60
3699;DHT22;1865;50.918;7.092;2022-10-13T03:37:58;14.20;59.60
3699;DHT22;1865;50.918;7.092;2022-10-13T03:40:23;14.20;59.70
3699;DHT22;1865;50.918;7.092;2022-10-13T03:42:49;14.20;59.80
3699;DHT22;1865;50.918;7.092;2022-10-13T03:45:14;14.20;59.50
3699;DHT22;1865;50.918;7.092;2022-10-13T03:47:40;14.10;59.80
3699;DHT22;1865;50.918;7.092;2022-10-13T03:50:06;14.10;59.80
3699;DHT22;1865;50.918;7.092;2022-10-13T03:52:31;14.20;59.50
3699;DHT22;1865;50.918;7.092;2022-10-13T03:54:57;14.10;59.80
3699;DHT22;1865;50.918;7.092;2022-10-13T03:57:23;14.20;59.80
3699;DHT22;1865;50.918;7.092;2022-10-13T03:59:48;14.20;59.40
3699;DHT22;1865;50.918;7.092;2022-10-13T04:02:14;14.30;59.50
3699;DHT22;1865;50.918;7.092;2022-10-13T04:04:39;14.30;59.40
3699;DHT22;1865;50.918;7.092;2022-10-13T04:07:06;14.30;59.50
3699;DHT22;1865;50.918;7.092;2022-10-13T04:09:32;14.30;59.50
3699;DHT22;1865;50.918;7.092;2022-10-13T04:11:58;14.30;59.50
3699;DHT22;1865;50.918;7.092;2022-10-13T04:14:23;14.20;59.40
3699;DHT22;1865;50.918;7.092;2022-10-13T04:16:49;14.30;59.60
3699;DHT22;1865;50.918;7.092;2022-10-13T04:19:15;14.30;59.50
3699;DHT22;1865;50.918;7.092;2022-10-13T04:21:41;14.40;59.40
3699;DHT22;1865;50.918;7.092;2022-10-13T04:24:13;14.40;59.30
3699;DHT22;1865;50.918;7.092;2022-10-13T04:26:39;14.40;59.20
3699;DHT22;1865;50.918;7.092;2022-10-13T04:29:07;14.40;59.30
3699;DHT22;1865;50.918;7.092;2022-10-13T04:31:33;14.40;59.30
3699;DHT22;1865;50.918;7.092;2022-10-13T04:33:59;14.40;59.00
3699;DHT22;1865;50.918;7.092;2022-10-13T04:36:25;14.40;59.10
3699;DHT22;1865;50.918;7.092;2022-10-13T04:38:52;14.40;59.30
3699;DHT22;1865;50.918;7.092;2022-10-13T04:41:19;14.40;59.30
3699;DHT22;1865;50.918;7.092;2022-10-13T04:43:49;14.40;59.30
3699;DHT22;1865;50.918;7.092;2022-10-13T04:46:17;14.40;59.00
3699;DHT22;1865;50.918;7.092;2022-10-13T04:48:43;14.30;59.30
3699;DHT22;1865;50.918;7.092;2022-10-13T04:51:12;14.30;59.20
3699;DHT22;1865;50.918;7.092;2022-10-13T04:53:38;14.30;59.20
3699;DHT22;1865;50.918;7.092;2022-10-13T04:56:07;14.30;59.20
3699;DHT22;1865;50.918;7.092;2022-10-13T04:58:34;14.30;59.20
3699;DHT22;1865;50.918;7.092;2022-10-13T05:01:00;14.30;59.30
3699;DHT22;1865;50.918;7.092;2022-10-13T05:03:26;14.30;59.40
3699;DHT22;1865;50.918;7.092;2022-10-13T05:05:52;14.30;59.40
3699;DHT22;1865;50.918;7.092;2022-10-13T05:08:18;14.30;59.40
3699;DHT22;1865;50.918;7.092;2022-10-13T05:10:58;14.40;59.30
3699;DHT22;1865;50.918;7.092;2022-10-13T05:13:25;14.40;59.00
3699;DHT22;1865;50.918;7.092;2022-10-13T05:15:51;14.40;58.70
3699;DHT22;1865;50.918;7.092;2022-10-13T05:18:17;14.40;59.00
3699;DHT22;1865;50.918;7.092;2022-10-13T05:20:42;14.50;58.80
3699;DHT22;1865;50.918;7.092;2022-10-13T05:23:08;14.40;58.80
3699;DHT22;1865;50.918;7.092;2022-10-13T05:25:34;14.50;58.90
3699;DHT22;1865;50.918;7.092;2022-10-13T05:28:01;14.40;58.90
3699;DHT22;1865;50.918;7.092;2022-10-13T05:30:27;14.40;58.90
3699;DHT22;1865;50.918;7.092;2022-10-13T05:32:52;14.40;59.00
3699;DHT22;1865;50.918;7.092;2022-10-13T05:35:17;14.40;59.00
3699;DHT22;1865;50.918;7.092;2022-10-13T05:37:43;14.50;58.80
3699;DHT22;1865;50.918;7.092;2022-10-13T05:40:09;14.50;58.80
3699;DHT22;1865;50.918;7.092;2022-10-13T05:42:35;14.50;58.80
3699;DHT22;1865;50.918;7.092;2022-10-13T05:45:00;14.50;58.60
3699;DHT22;1865;50.918;7.092;2022-10-13T05:47:26;14.50;58.80
3699;DHT22;1865;50.918;7.092;2022-10-13T05:49:53;14.60;58.70
3699;DHT22;1865;50.918;7.092;2022-10-13T05:52:20;14.60;58.50
3699;DHT22;1865;50.918;7.092;2022-10-13T05:54:54;14.60;58.30
3699;DHT22;1865;50.918;7.092;2022-10-13T05:57:35;14.50;58.30
3699;DHT22;1865;50.918;7.092;2022-10-13T06:00:08;14.50;58.60
3699;DHT22;1865;50.918;7.092;2022-10-13T06:05:12;14.40;58.80
3699;DHT22;1865;50.918;7.092;2022-10-13T06:07:39;14.40;59.00
3699;DHT22;1865;50.918;7.092;2022-10-13T06:10:04;14.50;58.90
3699;DHT22;1865;50.918;7.092;2022-10-13T06:12:30;14.50;58.70
3699;DHT22;1865;50.918;7.092;2022-10-13T06:14:56;14.60;58.40
3699;DHT22;1865;50.918;7.092;2022-10-13T06:17:21;14.50;58.60
3699;DHT22;1865;50.918;7.092;2022-10-13T06:19:47;14.50;58.80
3699;DHT22;1865;50.918;7.092;2022-10-13T06:22:12;14.40;58.80
3699;DHT22;1865;50.918;7.092;2022-10-13T06:24:38;14.50;58.90
3699;DHT22;1865;50.918;7.092;2022-10-13T06:27:03;14.50;58.80
3699;DHT22;1865;50.918;7.092;2022-10-13T06:29:29;14.50;58.60
3699;DHT22;1865;50.918;7.092;2022-10-13T06:31:54;14.50;58.80
3699;DHT22;1865;50.918;7.092;2022-10-13T06:34:20;14.50;58.60
3699;DHT22;1865;50.918;7.092;2022-10-13T06:36:45;14.50;58.50
3699;DHT22;1865;50.918;7.092;2022-10-13T06:39:11;14.50;58.60
3699;DHT22;1865;50.918;7.092;2022-10-13T06:41:37;14.50;58.50
3699;DHT22;1865;50.918;7.092;2022-10-13T06:44:02;14.50;58.60
3699;DHT22;1865;50.918;7.092;2022-10-13T06:46:28;14.50;58.80
3699;DHT22;1865;50.918;7.092;2022-10-13T06:48:53;14.50;58.60
3699;DHT22;1865;50.918;7.092;2022-10-13T06:51:20;14.50;58.60
3699;DHT22;1865;50.918;7.092;2022-10-13T06:53:45;14.60;58.70
3699;DHT22;1865;50.918;7.092;2022-10-13T06:56:11;14.60;58.60
3699;DHT22;1865;50.918;7.092;2022-10-13T06:58:37;14.60;58.70
3699;DHT22;1865;50.918;7.092;2022-10-13T07:01:03;14.70;58.50
3699;DHT22;1865;50.918;7.092;2022-10-13T07:03:29;14.60;58.40
3699;DHT22;1865;50.918;7.092;2022-10-13T07:06:03;14.60;58.50
3699;DHT22;1865;50.918;7.092;2022-10-13T07:08:29;14.70;58.60
3699;DHT22;1865;50.918;7.092;2022-10-13T07:10:55;14.80;58.20
3699;DHT22;1865;50.918;7.092;2022-10-13T07:13:20;14.80;58.20
3699;DHT22;1865;50.918;7.092;2022-10-13T07:15:46;14.80;58.00
3699;DHT22;1865;50.918;7.092;2022-10-13T07:18:12;14.80;58.20
3699;DHT22;1865;50.918;7.092;2022-10-13T07:20:37;14.80;58.20
3699;DHT22;1865;50.918;7.092;2022-10-13T07:23:03;14.90;58.40
3699;DHT22;1865;50.918;7.092;2022-10-13T07:25:28;14.90;58.20
3699;DHT22;1865;50.918;7.092;2022-10-13T07:27:54;14.90;58.10
3699;DHT22;1865;50.918;7.092;2022-10-13T07:30:19;15.00;58.10
3699;DHT22;1865;50.918;7.092;2022-10-13T07:32:45;15.00;58.10
3699;DHT22;1865;50.918;7.092;2022-10-13T07:35:11;15.00;58.90
3699;DHT22;1865;50.918;7.092;2022-10-13T07:37:37;15.10;58.30
3699;DHT22;1865;50.918;7.092;2022-10-13T07:40:04;15.20;58.40
3699;DHT22;1865;50.918;7.092;2022-10-13T07:42:30;15.30;58.10
3699;DHT22;1865;50.918;7.092;2022-10-13T07:44:56;15.40;57.90
3699;DHT22;1865;50.918;7.092;2022-10-13T07:47:21;15.40;58.00
3699;DHT22;1865;50.918;7.092;2022-10-13T07:49:47;15.50;57.90
3699;DHT22;1865;50.918;7.092;2022-10-13T07:52:12;15.60;57.80
3699;DHT22;1865;50.918;7.092;2022-10-13T07:54:38;15.80;57.60
3699;DHT22;1865;50.918;7.092;2022-10-13T07:57:03;15.90;57.20
3699;DHT22;1865;50.918;7.092;2022-10-13T07:59:31;16.00;56.70
3699;DHT22;1865;50.918;7.092;2022-10-13T08:01:57;16.10;56.70
3699;DHT22;1865;50.918;7.092;2022-10-13T08:04:31;16.10;56.70
3699;DHT22;1865;50.918;7.092;2022-10-13T08:06:57;16.20;56.40
3699;DHT22;1865;50.918;7.092;2022-10-13T08:09:23;16.20;56.60
3699;DHT22;1865;50.918;7.092;2022-10-13T08:11:49;16.40;56.40
3699;DHT22;1865;50.918;7.092;2022-10-13T08:14:15;16.50;56.50
3699;DHT22;1865;50.918;7.092;2022-10-13T08:16:40;16.50;56.40
3699;DHT22;1865;50.918;7.092;2022-10-13T08:19:10;16.70;56.60
3699;DHT22;1865;50.918;7.092;2022-10-13T08:21:36;16.70;56.10
3699;DHT22;1865;50.918;7.092;2022-10-13T08:24:04;16.70;56.00
3699;DHT22;1865;50.918;7.092;2022-10-13T08:26:29;16.80;55.90
3699;DHT22;1865;50.918;7.092;2022-10-13T08:28:55;16.90;55.50
3699;DHT22;1865;50.918;7.092;2022-10-13T08:31:20;17.00;55.70
3699;DHT22;1865;50.918;7.092;2022-10-13T08:33:46;17.20;55.60
3699;DHT22;1865;50.918;7.092;2022-10-13T08:36:13;17.20;55.30
3699;DHT22;1865;50.918;7.092;2022-10-13T08:38:39;17.20;55.10
3699;DHT22;1865;50.918;7.092;2022-10-13T08:41:17;17.10;54.70
3699;DHT22;1865;50.918;7.092;2022-10-13T08:43:52;17.10;55.10
3699;DHT22;1865;50.918;7.092;2022-10-13T08:46:28;17.00;55.20
3699;DHT22;1865;50.918;7.092;2022-10-13T08:48:56;17.10;54.90
3699;DHT22;1865;50.918;7.092;2022-10-13T08:51:23;17.20;54.80
3699;DHT22;1865;50.918;7.092;2022-10-13T08:53:49;17.30;55.00
3699;DHT22;1865;50.918;7.092;2022-10-13T08:56:18;17.40;54.60
3699;DHT22;1865;50.918;7.092;2022-10-13T08:58:47;17.40;54.50
3699;DHT22;1865;50.918;7.092;2022-10-13T09:01:20;17.30;54.60
3699;DHT22;1865;50.918;7.092;2022-10-13T09:06:26;17.20;54.80
3699;DHT22;1865;50.918;7.092;2022-10-13T09:08:56;17.20;54.80
3699;DHT22;1865;50.918;7.092;2022-10-13T09:11:26;17.30;55.00
3699;DHT22;1865;50.918;7.092;2022-10-13T09:13:58;17.50;54.70
3699;DHT22;1865;50.918;7.092;2022-10-13T09:16:29;17.50;54.70
3699;DHT22;1865;50.918;7.092;2022-10-13T09:19:12;17.60;54.30
3699;DHT22;1865;50.918;7.092;2022-10-13T09:21:38;17.60;54.00
3699;DHT22;1865;50.918;7.092;2022-10-13T09:24:07;17.50;54.40
3699;DHT22;1865;50.918;7.092;2022-10-13T09:26:36;17.60;54.30
3699;DHT22;1865;50.918;7.092;2022-10-13T09:29:28;17.70;54.40
3699;DHT22;1865;50.918;7.092;2022-10-13T09:32:26;17.80;54.00
3699;DHT22;1865;50.918;7.092;2022-10-13T09:34:52;17.80;54.20
3699;DHT22;1865;50.918;7.092;2022-10-13T09:37:24;17.90;54.20
3699;DHT22;1865;50.918;7.092;2022-10-13T09:42:28;18.00;54.10
3699;DHT22;1865;50.918;7.092;2022-10-13T09:44:59;18.10;53.90
3699;DHT22;1865;50.918;7.092;2022-10-13T09:47:28;18.20;53.90
3699;DHT22;1865;50.918;7.092;2022-10-13T09:50:16;18.30;53.40
3699;DHT22;1865;50.918;7.092;2022-10-13T09:52:44;18.30;52.80
3699;DHT22;1865;50.918;7.092;2022-10-13T09:55:33;18.30;53.20
3699;DHT22;1865;50.918;7.092;2022-10-13T09:58:18;18.40;53.30
3699;DHT22;1865;50.918;7.092;2022-10-13T10:00:44;18.40;53.20
3699;DHT22;1865;50.918;7.092;2022-10-13T10:03:16;18.40;53.00
3699;DHT22;1865;50.918;7.092;2022-10-13T10:05:56;18.50;53.20
3699;DHT22;1865;50.918;7.092;2022-10-13T10:08:43;18.50;52.90
3699;DHT22;1865;50.918;7.092;2022-10-13T10:11:25;18.60;52.60
3699;DHT22;1865;50.918;7.092;2022-10-13T10:13:52;18.70;52.00
3699;DHT22;1865;50.918;7.092;2022-10-13T10:19:17;18.60;52.50
3699;DHT22;1865;50.918;7.092;2022-10-13T10:22:10;18.70;52.60
3699;DHT22;1865;50.918;7.092;2022-10-13T10:24:50;18.80;52.90
3699;DHT22;1865;50.918;7.092;2022-10-13T10:27:23;19.00;53.00
3699;DHT22;1865;50.918;7.092;2022-10-13T10:29:55;19.10;51.90
3699;DHT22;1865;50.918;7.092;2022-10-13T10:32:39;19.10;51.10
3699;DHT22;1865;50.918;7.092;2022-10-13T10:38:15;19.20;51.40
3699;DHT22;1865;50.918;7.092;2022-10-13T10:40:49;19.20;51.10
3699;DHT22;1865;50.918;7.092;2022-10-13T10:45:46;19.30;50.70
3699;DHT22;1865;50.918;7.092;2022-10-13T10:48:22;19.30;51.30
3699;DHT22;1865;50.918;7.092;2022-10-13T10:50:50;19.30;51.70
3699;DHT22;1865;50.918;7.092;2022-10-13T10:53:44;19.50;51.50
3699;DHT22;1865;50.918;7.092;2022-10-13T10:56:36;19.70;51.20
3699;DHT22;1865;50.918;7.092;2022-10-13T11:02:10;20.10;50.10
3699;DHT22;1865;50.918;7.092;2022-10-13T11:04:44;20.20;48.90
3699;DHT22;1865;50.918;7.092;2022-10-13T11:07:57;20.30;49.40
3699;DHT22;1865;50.918;7.092;2022-10-13T11:10:17;20.50;49.40
3699;DHT22;1865;50.918;7.092;2022-10-13T11:15:23;20.60;49.00
3699;DHT22;1865;50.918;7.092;2022-10-13T11:17:49;20.50;48.70
3699;DHT22;1865;50.918;7.092;2022-10-13T11:25:44;20.50;48.40
3699;DHT22;1865;50.918;7.092;2022-10-13T11:33:35;20.30;49.00
3699;DHT22;1865;50.918;7.092;2022-10-13T11:39:33;20.40;49.50
3699;DHT22;1865;50.918;7.092;2022-10-13T11:44:48;20.40;50.00
3699;DHT22;1865;50.918;7.092;2022-10-13T11:56:21;20.50;49.70
3699;DHT22;1865;50.918;7.092;2022-10-13T11:58:47;20.30;49.80
3699;DHT22;1865;50.918;7.092;2022-10-13T12:01:14;20.40;49.70
3699;DHT22;1865;50.918;7.092;2022-10-13T12:03:42;20.50;50.10
3699;DHT22;1865;50.918;7.092;2022-10-13T12:06:32;20.60;50.20
3699;DHT22;1865;50.918;7.092;2022-10-13T12:09:16;20.60;49.70
3699;DHT22;1865;50.918;7.092;2022-10-13T12:11:43;20.70;49.90
3699;DHT22;1865;50.918;7.092;2022-10-13T12:14:21;20.60;49.80
3699;DHT22;1865;50.918;7.092;2022-10-13T12:16:57;20.60;49.80
3699;DHT22;1865;50.918;7.092;2022-10-13T12:19:25;20.50;49.70
3699;DHT22;1865;50.918;7.092;2022-10-13T12:21:54;20.50;50.20
3699;DHT22;1865;50.918;7.092;2022-10-13T12:24:24;20.50;51.00
3699;DHT22;1865;50.918;7.092;2022-10-13T12:26:51;20.50;51.00
3699;DHT22;1865;50.918;7.092;2022-10-13T12:29:19;20.60;51.90
3699;DHT22;1865;50.918;7.092;2022-10-13T12:31:48;20.70;52.20
3699;DHT22;1865;50.918;7.092;2022-10-13T12:36:46;20.80;49.90
3699;DHT22;1865;50.918;7.092;2022-10-13T12:39:17;20.60;49.50
3699;DHT22;1865;50.918;7.092;2022-10-13T12:41:45;20.70;49.90
3699;DHT22;1865;50.918;7.092;2022-10-13T12:44:19;20.80;49.20
3699;DHT22;1865;50.918;7.092;2022-10-13T12:46:55;20.70;49.40
3699;DHT22;1865;50.918;7.092;2022-10-13T12:49:34;20.80;49.20
3699;DHT22;1865;50.918;7.092;2022-10-13T12:52:25;20.90;49.60
3699;DHT22;1865;50.918;7.092;2022-10-13T12:54:53;21.00;49.90
3699;DHT22;1865;50.918;7.092;2022-10-13T12:57:30;21.10;49.40
3699;DHT22;1865;50.918;7.092;2022-10-13T13:00:01;21.00;49.90
3699;DHT22;1865;50.918;7.092;2022-10-13T13:02:31;21.00;49.30
3699;DHT22;1865;50.918;7.092;2022-10-13T13:04:57;21.00;50.10
3699;DHT22;1865;50.918;7.092;2022-10-13T13:07:32;21.10;50.30
3699;DHT22;1865;50.918;7.092;2022-10-13T13:12:34;21.10;49.50
3699;DHT22;1865;50.918;7.092;2022-10-13T13:17:42;21.20;49.70
3699;DHT22;1865;50.918;7.092;2022-10-13T13:20:32;21.20;49.70
3699;DHT22;1865;50.918;7.092;2022-10-13T13:22:59;21.20;50.80
3699;DHT22;1865;50.918;7.092;2022-10-13T13:25:25;21.10;50.50
3699;DHT22;1865;50.918;7.092;2022-10-13T13:27:51;21.10;50.50
3699;DHT22;1865;50.918;7.092;2022-10-13T13:30:22;21.00;50.10
3699;DHT22;1865;50.918;7.092;2022-10-13T13:32:48;20.80;48.90
3699;DHT22;1865;50.918;7.092;2022-10-13T13:35:14;20.80;49.10
3699;DHT22;1865;50.918;7.092;2022-10-13T13:37:48;20.80;49.20
3699;DHT22;1865;50.918;7.092;2022-10-13T13:40:20;20.80;48.70
3699;DHT22;1865;50.918;7.092;2022-10-13T13:42:46;20.80;49.10
3699;DHT22;1865;50.918;7.092;2022-10-13T13:45:16;20.80;49.30
3699;DHT22;1865;50.918;7.092;2022-10-13T13:47:42;20.80;49.30
3699;DHT22;1865;50.918;7.092;2022-10-13T13:50:26;20.60;49.30
3699;DHT22;1865;50.918;7.092;2022-10-13T13:52:51;20.60;49.20
3699;DHT22;1865;50.918;7.092;2022-10-13T13:55:17;20.50;49.40
3699;DHT22;1865;50.918;7.092;2022-10-13T13:57:43;20.50;49.90
3699;DHT22;1865;50.918;7.092;2022-10-13T14:00:13;20.40;50.20
3699;DHT22;1865;50.918;7.092;2022-10-13T14:02:39;20.40;50.60
3699;DHT22;1865;50.918;7.092;2022-10-13T14:05:05;20.40;50.80
3699;DHT22;1865;50.918;7.092;2022-10-13T14:07:31;20.40;51.10
3699;DHT22;1865;50.918;7.092;2022-10-13T14:09:57;20.40;51.30
3699;DHT22;1865;50.918;7.092;2022-10-13T14:12:22;20.50;51.60
3699;DHT22;1865;50.918;7.092;2022-10-13T14:14:48;20.50;52.00
3699;DHT22;1865;50.918;7.092;2022-10-13T14:17:13;20.30;51.80
3699;DHT22;1865;50.918;7.092;2022-10-13T14:19:40;20.30;52.30
3699;DHT22;1865;50.918;7.092;2022-10-13T14:22:06;20.20;52.60
3699;DHT22;1865;50.918;7.092;2022-10-13T14:24:32;20.20;53.30
3699;DHT22;1865;50.918;7.092;2022-10-13T14:26:57;20.20;53.80
3699;DHT22;1865;50.918;7.092;2022-10-13T14:29:23;20.00;53.60
3699;DHT22;1865;50.918;7.092;2022-10-13T14:31:48;20.00;54.00
3699;DHT22;1865;50.918;7.092;2022-10-13T14:34:14;20.00;54.20
3699;DHT22;1865;50.918;7.092;2022-10-13T14:36:39;20.00;54.80
3699;DHT22;1865;50.918;7.092;2022-10-13T14:39:05;20.00;55.20
3699;DHT22;1865;50.918;7.092;2022-10-13T14:41:30;19.90;55.20
3699;DHT22;1865;50.918;7.092;2022-10-13T14:43:56;19.80;55.00
3699;DHT22;1865;50.918;7.092;2022-10-13T14:46:22;19.80;55.30
3699;DHT22;1865;50.918;7.092;2022-10-13T14:48:48;19.80;55.60
3699;DHT22;1865;50.918;7.092;2022-10-13T14:51:14;19.80;55.60
3699;DHT22;1865;50.918;7.092;2022-10-13T14:53:42;19.70;55.80
3699;DHT22;1865;50.918;7.092;2022-10-13T14:56:22;19.70;56.20
3699;DHT22;1865;50.918;7.092;2022-10-13T14:58:49;19.60;56.30
3699;DHT22;1865;50.918;7.092;2022-10-13T15:01:16;19.60;56.70
3699;DHT22;1865;50.918;7.092;2022-10-13T15:03:41;19.60;56.80
3699;DHT22;1865;50.918;7.092;2022-10-13T15:06:17;19.50;56.90
3699;DHT22;1865;50.918;7.092;2022-10-13T15:08:43;19.40;57.30
3699;DHT22;1865;50.918;7.092;2022-10-13T15:11:09;19.40;57.50
3699;DHT22;1865;50.918;7.092;2022-10-13T15:13:35;19.40;57.80
3699;DHT22;1865;50.918;7.092;2022-10-13T15:16:00;19.40;58.10
3699;DHT22;1865;50.918;7.092;2022-10-13T15:18:31;19.40;58.40
3699;DHT22;1865;50.918;7.092;2022-10-13T15:20:57;19.30;58.50
3699;DHT22;1865;50.918;7.092;2022-10-13T15:23:24;19.30;58.80
3699;DHT22;1865;50.918;7.092;2022-10-13T15:25:54;19.30;59.20
3699;DHT22;1865;50.918;7.092;2022-10-13T15:28:21;19.30;59.10
3699;DHT22;1865;50.918;7.092;2022-10-13T15:30:47;19.30;59.30
3699;DHT22;1865;50.918;7.092;2022-10-13T15:33:13;19.30;59.80
3699;DHT22;1865;50.918;7.092;2022-10-13T15:35:38;19.30;59.60
3699;DHT22;1865;50.918;7.092;2022-10-13T15:38:04;19.30;59.60
3699;DHT22;1865;50.918;7.092;2022-10-13T15:40:29;19.30;59.50
3699;DHT22;1865;50.918;7.092;2022-10-13T15:43:00;19.20;59.50
3699;DHT22;1865;50.918;7.092;2022-10-13T15:45:26;19.20;59.80
3699;DHT22;1865;50.918;7.092;2022-10-13T15:47:52;19.10;60.00
3699;DHT22;1865;50.918;7.092;2022-10-13T15:50:18;19.00;59.90
3699;DHT22;1865;50.918;7.092;2022-10-13T15:52:43;19.00;60.30
3699;DHT22;1865;50.918;7.092;2022-10-13T15:55:10;19.00;60.20
3699;DHT22;1865;50.918;7.092;2022-10-13T15:57:36;19.00;60.50
3699;DHT22;1865;50.918;7.092;2022-10-13T16:00:04;19.00;60.40
3699;DHT22;1865;50.918;7.092;2022-10-13T16:02:29;19.00;60.40
3699;DHT22;1865;50.918;7.092;2022-10-13T16:04:55;19.00;60.40
3699;DHT22;1865;50.918;7.092;2022-10-13T16:07:22;19.00;60.40
3699;DHT22;1865;50.918;7.092;2022-10-13T16:09:48;18.90;60.70
3699;DHT22;1865;50.918;7.092;2022-10-13T16:12:13;18.90;60.70
3699;DHT22;1865;50.918;7.092;2022-10-13T16:14:39;18.90;60.80
3699;DHT22;1865;50.918;7.092;2022-10-13T16:17:04;18.80;60.60
3699;DHT22;1865;50.918;7.092;2022-10-13T16:19:30;18.80;60.90
3699;DHT22;1865;50.918;7.092;2022-10-13T16:21:55;18.70;61.00
3699;DHT22;1865;50.918;7.092;2022-10-13T16:24:21;18.70;61.10
3699;DHT22;1865;50.918;7.092;2022-10-13T16:26:47;18.70;61.10
3699;DHT22;1865;50.918;7.092;2022-10-13T16:29:12;18.60;61.00
3699;DHT22;1865;50.918;7.092;2022-10-13T16:31:38;18.70;61.40
3699;DHT22;1865;50.918;7.092;2022-10-13T16:34:03;18.70;61.30
3699;DHT22;1865;50.918;7.092;2022-10-13T16:36:29;18.60;61.10
3699;DHT22;1865;50.918;7.092;2022-10-13T16:38:54;18.50;61.40
3699;DHT22;1865;50.918;7.092;2022-10-13T16:41:20;18.60;61.60
3699;DHT22;1865;50.918;7.092;2022-10-13T16:43:46;18.60;61.20
3699;DHT22;1865;50.918;7.092;2022-10-13T16:46:14;18.50;61.30
3699;DHT22;1865;50.918;7.092;2022-10-13T16:48:40;18.50;61.50
3699;DHT22;1865;50.918;7.092;2022-10-13T16:51:08;18.50;61.60
3699;DHT22;1865;50.918;7.092;2022-10-13T16:53:34;18.60;61.40
3699;DHT22;1865;50.918;7.092;2022-10-13T16:56:02;18.60;61.30
3699;DHT22;1865;50.918;7.092;2022-10-13T16:58:28;18.60;61.20
3699;DHT22;1865;50.918;7.092;2022-10-13T17:01:04;18.60;61.20
3699;DHT22;1865;50.918;7.092;2022-10-13T17:03:30;18.60;61.30
3699;DHT22;1865;50.918;7.092;2022-10-13T17:05:55;18.50;61.30
3699;DHT22;1865;50.918;7.092;2022-10-13T17:08:21;18.50;61.70
3699;DHT22;1865;50.918;7.092;2022-10-13T17:10:46;18.50;61.70
3699;DHT22;1865;50.918;7.092;2022-10-13T17:13:12;18.50;61.80
3699;DHT22;1865;50.918;7.092;2022-10-13T17:15:37;18.40;61.50
3699;DHT22;1865;50.918;7.092;2022-10-13T17:18:03;18.40;61.70
3699;DHT22;1865;50.918;7.092;2022-10-13T17:20:28;18.40;61.90
3699;DHT22;1865;50.918;7.092;2022-10-13T17:22:54;18.40;61.70
3699;DHT22;1865;50.918;7.092;2022-10-13T17:25:19;18.40;61.70